Time;durP1;ratioP1;P1;durP2;ratioP2;P2;SDS_P1;SDS_P2;PMS_P1;PMS_P2;Temp;Humidity;BMP_temperature;BMP_pressure;BME280_temperature;BME280_humidity;BME280_pressure;Samples;Min_cycle;Max_cycle;Signal;HPM_P1;HPM_P2
2022/08/15 00:01:21;;;;;;;5.63;4.82;;;;;;;23.41;58.56;100044.94;5013476;28;20036;-75
2022/08/15 00:03:51;;;;;;;6.70;4.90;;;;;;;23.37;59.01;100037.78;5025332;28;20051;-75
2022/08/15 00:06:27;;;;;;;6.45;5.28;;;;;;;23.27;59.01;100038.53;5041036;28;20056;-75
2022/08/15 00:08:56;;;;;;;10.00;5.45;;;;;;;23.15;59.54;100040.59;5023795;28;20051;-75
2022/08/15 00:11:31;;;;;;;6.80;4.82;;;;;;;23.02;59.65;100032.06;5038858;28;20025;-75
2022/08/15 00:14:10;;;;;;;7.80;4.47;;;;;;;22.94;60.16;100038.63;5037240;28;20029;-75
2022/08/15 00:16:38;;;;;;;5.82;4.53;;;;;;;22.86;60.31;100033.03;5025030;28;20072;-75
2022/08/15 00:19:09;;;;;;;8.13;5.38;;;;;;;22.82;60.18;100043.31;5040660;28;20025;-75
2022/08/15 00:21:44;;;;;;;8.40;4.43;;;;;;;22.80;60.35;100048.06;5046224;28;20386;-74
2022/08/15 00:24:15;;;;;;;6.65;4.93;;;;;;;22.79;59.75;100050.94;5040247;28;20037;-75
2022/08/15 00:26:42;;;;;;;8.70;4.60;;;;;;;22.74;59.57;100057.81;5026206;28;20064;-75
2022/08/15 00:29:08;;;;;;;5.10;4.60;;;;;;;22.76;58.37;100059.41;5027768;28;20032;-75
2022/08/15 00:31:35;;;;;;;6.00;3.97;;;;;;;22.74;56.24;100052.50;5023125;28;20029;-75
2022/08/15 00:34:02;;;;;;;5.32;3.90;;;;;;;22.76;54.47;100054.91;5026596;28;20112;-75
2022/08/15 00:36:30;;;;;;;7.97;3.50;;;;;;;22.80;53.02;100055.97;5021635;28;20041;-76
2022/08/15 00:38:57;;;;;;;4.93;3.30;;;;;;;22.77;53.23;100053.84;5037654;28;20033;-75
2022/08/15 00:41:41;;;;;;;6.82;3.22;;;;;;;22.76;53.93;100052.25;5022403;28;20036;-75
2022/08/15 00:44:13;;;;;;;3.83;2.95;;;;;;;22.77;52.38;100053.06;5019874;28;20025;-75
2022/08/15 00:46:40;;;;;;;11.75;3.90;;;;;;;22.80;50.81;100053.34;5021617;28;20078;-75
2022/08/15 00:49:06;;;;;;;5.15;3.25;;;;;;;22.78;51.11;100052.81;5005180;28;20028;-75
2022/08/15 00:52:03;;;;;;;7.43;3.40;;;;;;;22.79;50.71;100056.22;5021614;28;20496;-76
2022/08/15 00:54:42;;;;;;;6.88;2.95;;;;;;;22.84;49.64;100058.91;4970898;28;20037;-76
2022/08/15 00:57:14;;;;;;;7.78;2.90;;;;;;;22.78;49.60;100055.44;5035049;28;20493;-75
2022/08/15 00:59:45;;;;;;;5.00;2.47;;;;;;;22.80;49.19;100049.91;5020230;28;20044;-76
2022/08/15 01:02:14;;;;;;;4.85;2.92;;;;;;;22.78;48.66;100054.66;5019429;28;20065;-76
2022/08/15 01:04:40;;;;;;;4.10;2.53;;;;;;;22.75;47.91;100058.59;5005187;28;20131;-76
2022/08/15 01:07:07;;;;;;;3.75;2.85;;;;;;;22.88;47.60;100055.50;5023420;28;20108;-77
2022/08/15 01:09:36;;;;;;;4.40;2.35;;;;;;;22.81;47.83;100052.31;5037425;28;20041;-77
2022/08/15 01:12:08;;;;;;;4.60;2.13;;;;;;;22.79;47.60;100049.09;5007295;28;20091;-76
2022/08/15 01:14:36;;;;;;;4.47;2.20;;;;;;;22.78;48.09;100052.03;5039533;28;20040;-76
2022/08/15 01:17:04;;;;;;;3.10;2.53;;;;;;;22.82;47.92;100058.38;5004017;28;20529;-76
2022/08/15 01:19:33;;;;;;;6.28;2.13;;;;;;;22.82;48.03;100053.88;5004574;28;20025;-75
2022/08/15 01:22:10;;;;;;;8.02;2.25;;;;;;;22.80;47.92;100053.34;5025364;28;20040;-75
2022/08/15 01:24:57;;;;;;;5.63;1.92;;;;;;;22.80;48.59;100055.97;5027446;28;20055;-75
2022/08/15 01:27:26;;;;;;;5.72;2.42;;;;;;;22.77;48.56;100055.69;5011211;28;20025;-78
2022/08/15 01:29:53;;;;;;;7.90;2.20;;;;;;;22.80;48.51;100047.28;5041842;28;20028;-76
2022/08/15 01:32:19;;;;;;;3.53;2.17;;;;;;;22.85;48.60;100050.75;5024492;28;20120;-78
2022/08/15 01:34:45;;;;;;;3.22;2.15;;;;;;;22.93;48.65;100041.53;5008693;28;21504;-76
2022/08/15 01:37:11;;;;;;;12.38;3.28;;;;;;;23.01;48.49;100040.25;5025333;28;20115;-79
2022/08/15 01:39:43;;;;;;;7.50;2.20;;;;;;;23.01;48.86;100038.38;5025611;28;20033;-76
2022/08/15 01:42:16;;;;;;;11.95;3.20;;;;;;;22.87;49.22;100037.28;5021738;28;20040;-77
2022/08/15 01:44:50;;;;;;;5.13;2.45;;;;;;;22.89;49.46;100038.59;5022608;28;20036;-77
2022/08/15 01:47:28;;;;;;;4.30;2.40;;;;;;;22.88;49.78;100042.28;5022427;28;20106;-75
2022/08/15 01:50:07;;;;;;;4.88;2.00;;;;;;;22.92;49.48;100043.38;5024129;28;20033;-76
2022/08/15 01:52:50;;;;;;;13.05;3.08;;;;;;;22.92;50.02;100045.22;5014911;28;20413;-77
2022/08/15 01:55:18;;;;;;;6.78;2.13;;;;;;;22.86;50.01;100046.25;5022838;28;20286;-76
2022/08/15 01:57:44;;;;;;;7.13;2.17;;;;;;;22.89;49.94;100035.97;5010103;28;20029;-76
2022/08/15 02:00:11;;;;;;;14.05;2.65;;;;;;;22.93;50.09;100046.81;5007945;28;20610;-76
2022/08/15 02:02:41;;;;;;;8.65;2.25;;;;;;;22.85;50.14;100045.47;5045271;28;20691;-76
2022/08/15 02:05:08;;;;;;;3.10;2.17;;;;;;;22.89;50.54;100038.59;5023275;28;20044;-76
2022/08/15 02:07:35;;;;;;;5.97;2.28;;;;;;;22.91;50.24;100038.34;5007216;28;20505;-79
2022/08/15 02:10:03;;;;;;;5.78;2.35;;;;;;;22.92;50.41;100046.03;5007694;28;20033;-77
2022/08/15 02:12:36;;;;;;;3.53;2.40;;;;;;;22.87;50.85;100051.28;5019930;28;20036;-76
2022/08/15 02:15:07;;;;;;;6.05;2.28;;;;;;;22.99;50.28;100051.06;5008595;28;20128;-76
2022/08/15 02:17:35;;;;;;;7.20;3.17;;;;;;;22.93;50.95;100060.03;5037523;28;20084;-77
2022/08/15 02:20:03;;;;;;;6.07;3.03;;;;;;;22.91;50.70;100055.00;5023047;28;20033;-76
2022/08/15 02:22:28;;;;;;;5.78;2.72;;;;;;;22.82;50.78;100053.09;5041537;28;20429;-78
2022/08/15 02:24:57;;;;;;;5.75;2.40;;;;;;;22.96;50.98;100056.84;5013372;28;20120;-76
2022/08/15 02:27:25;;;;;;;8.43;2.30;;;;;;;22.81;51.01;100060.22;5026125;28;20028;-77
2022/08/15 02:29:51;;;;;;;6.47;2.55;;;;;;;22.83;51.11;100054.66;5029833;28;20032;-76
2022/08/15 02:32:17;;;;;;;6.53;2.17;;;;;;;22.76;51.47;100056.75;5027792;28;20531;-77
2022/08/15 02:34:46;;;;;;;5.22;2.75;;;;;;;22.70;51.60;100059.38;5011996;28;20121;-76
2022/08/15 02:37:18;;;;;;;6.85;2.08;;;;;;;22.74;51.75;100057.00;5026758;28;20033;-77
2022/08/15 02:39:47;;;;;;;7.25;2.17;;;;;;;22.71;51.49;100063.59;5031397;28;20029;-76
2022/08/15 02:42:15;;;;;;;3.72;1.92;;;;;;;22.65;52.10;100063.81;5030035;28;20551;-76
2022/08/15 02:44:42;;;;;;;3.83;2.47;;;;;;;22.66;51.96;100068.03;5012924;28;20036;-76
2022/08/15 02:47:10;;;;;;;4.88;2.30;;;;;;;22.60;51.96;100069.84;5028006;28;20032;-76
2022/08/15 02:49:40;;;;;;;8.75;2.10;;;;;;;22.61;52.03;100066.16;5040287;28;20082;-77
2022/08/15 02:52:06;;;;;;;4.95;1.85;;;;;;;22.59;52.19;100076.19;5012362;28;20501;-79
2022/08/15 02:54:32;;;;;;;5.63;2.10;;;;;;;22.57;52.00;100064.28;5032521;28;20067;-77
2022/08/15 02:56:57;;;;;;;4.18;2.17;;;;;;;22.59;52.19;100065.63;5028632;28;20033;-78
2022/08/15 02:59:24;;;;;;;5.45;2.35;;;;;;;22.57;52.35;100059.00;5032194;28;20476;-76
2022/08/15 03:01:51;;;;;;;5.80;2.90;;;;;;;22.66;51.80;100065.41;5030440;28;20040;-75
2022/08/15 03:04:23;;;;;;;4.65;2.58;;;;;;;22.67;52.00;100065.16;5032514;28;20393;-77
2022/08/15 03:06:52;;;;;;;3.97;2.00;;;;;;;22.57;52.20;100065.09;5027311;28;20410;-78
2022/08/15 03:09:19;;;;;;;3.67;2.05;;;;;;;22.61;52.15;100060.09;5033291;28;20125;-76
2022/08/15 03:11:52;;;;;;;5.75;2.50;;;;;;;22.52;52.31;100057.91;5042151;28;20040;-79
2022/08/15 03:14:22;;;;;;;4.40;1.95;;;;;;;22.49;52.18;100057.59;5030568;28;20028;-76
2022/08/15 03:16:49;;;;;;;3.20;2.22;;;;;;;22.45;52.57;100060.00;5034687;28;20025;-76
2022/08/15 03:19:20;;;;;;;4.72;2.55;;;;;;;22.39;52.50;100062.81;5027554;28;20040;-76
2022/08/15 03:21:49;;;;;;;5.38;2.30;;;;;;;22.42;52.70;100059.69;5025790;28;20029;-76
2022/08/15 03:24:16;;;;;;;3.65;2.58;;;;;;;22.39;52.78;100065.47;5026576;28;20041;-77
2022/08/15 03:26:45;;;;;;;8.60;2.53;;;;;;;22.40;52.78;100054.66;5032414;28;20020;-76
2022/08/15 03:29:16;;;;;;;4.22;2.05;;;;;;;22.38;52.86;100059.41;5035543;28;20104;-76
2022/08/15 03:31:48;;;;;;;7.95;2.00;;;;;;;22.29;53.14;100060.91;5012051;28;20559;-76
2022/08/15 03:34:21;;;;;;;5.40;2.13;;;;;;;22.21;53.58;100054.22;5028741;28;20066;-76
2022/08/15 03:36:46;;;;;;;6.35;2.50;;;;;;;22.19;53.52;100050.22;5008364;28;20117;-76
2022/08/15 03:39:14;;;;;;;6.78;2.30;;;;;;;22.23;53.48;100061.88;5012481;28;20033;-76
2022/08/15 03:41:42;;;;;;;4.45;2.20;;;;;;;22.24;53.25;100055.53;5013904;28;20133;-77
2022/08/15 03:44:10;;;;;;;5.93;2.17;;;;;;;22.15;53.57;100057.84;5041508;28;20083;-76
2022/08/15 03:46:36;;;;;;;5.72;2.00;;;;;;;22.07;54.08;100051.16;5019737;28;20039;-77
2022/08/15 03:49:02;;;;;;;5.30;2.42;;;;;;;22.07;53.70;100050.38;5029988;28;20130;-76
2022/08/15 03:51:33;;;;;;;4.78;2.70;;;;;;;22.06;53.74;100057.50;5029318;28;20493;-77
2022/08/15 03:54:05;;;;;;;3.13;2.20;;;;;;;22.08;54.16;100058.06;5030792;28;20075;-78
2022/08/15 03:56:33;;;;;;;3.40;2.15;;;;;;;22.09;54.06;100056.19;5027008;28;20501;-76
2022/08/15 03:59:01;;;;;;;6.45;2.97;;;;;;;22.07;54.09;100066.22;5033936;28;20033;-76
2022/08/15 04:01:29;;;;;;;5.20;2.25;;;;;;;22.01;54.22;100067.22;5030304;28;20037;-77
2022/08/15 04:03:57;;;;;;;8.00;2.13;;;;;;;21.97;54.49;100064.28;5032157;28;20024;-77
2022/08/15 04:06:29;;;;;;;4.65;2.40;;;;;;;21.95;54.85;100064.53;5028098;28;20037;-77
2022/08/15 04:08:57;;;;;;;7.05;2.10;;;;;;;21.94;54.64;100060.31;5046126;28;20309;-77
2022/08/15 04:11:28;;;;;;;6.47;2.35;;;;;;;21.99;54.84;100056.13;5031658;28;20032;-77
2022/08/15 04:13:54;;;;;;;5.75;2.10;;;;;;;21.95;55.12;100048.69;5045700;28;20408;-76
2022/08/15 04:16:21;;;;;;;5.25;2.65;;;;;;;21.96;55.05;100060.84;5029557;28;20028;-76
2022/08/15 04:18:47;;;;;;;4.35;2.35;;;;;;;21.98;54.96;100071.13;5029566;28;20489;-76
2022/08/15 04:21:14;;;;;;;4.38;1.73;;;;;;;21.97;55.42;100065.06;5029015;28;20041;-77
2022/08/15 04:23:43;;;;;;;3.85;2.00;;;;;;;22.01;55.16;100064.59;5009784;28;21633;-77
2022/08/15 04:26:11;;;;;;;7.82;2.13;;;;;;;22.00;55.32;100073.53;5020799;28;20042;-77
2022/08/15 04:28:36;;;;;;;4.57;1.80;;;;;;;21.99;55.24;100064.81;5012976;28;20068;-78
2022/08/15 04:31:07;;;;;;;11.35;2.58;;;;;;;21.95;55.43;100069.81;5022966;28;20065;-76
2022/08/15 04:33:34;;;;;;;6.10;2.38;;;;;;;21.95;55.32;100069.81;5020686;28;20103;-78
2022/08/15 04:36:02;;;;;;;7.55;2.20;;;;;;;21.95;55.65;100066.38;5005570;28;20031;-77
2022/08/15 04:38:32;;;;;;;4.05;2.08;;;;;;;22.05;55.09;100071.75;5039374;28;20029;-77
2022/08/15 04:40:58;;;;;;;9.15;2.15;;;;;;;22.00;55.58;100077.00;5027151;28;20032;-76
2022/08/15 04:43:24;;;;;;;6.97;2.63;;;;;;;22.06;55.43;100083.91;5022435;28;20029;-76
2022/08/15 04:45:52;;;;;;;3.53;1.85;;;;;;;22.02;55.42;100079.34;5012004;28;20398;-76
2022/08/15 04:48:20;;;;;;;5.63;1.90;;;;;;;21.98;55.76;100081.69;5016814;28;20031;-77
2022/08/15 04:50:48;;;;;;;4.85;1.80;;;;;;;21.98;55.76;100086.97;5013033;28;20044;-76
2022/08/15 04:53:16;;;;;;;4.95;2.10;;;;;;;22.07;55.83;100084.69;5027391;28;20405;-77
2022/08/15 04:55:43;;;;;;;4.90;2.33;;;;;;;22.12;55.12;100079.47;5021182;28;20028;-76
2022/08/15 04:58:12;;;;;;;5.50;2.50;;;;;;;22.14;55.30;100082.66;5044383;28;20108;-76
2022/08/15 05:00:42;;;;;;;3.67;1.80;;;;;;;22.15;55.13;100077.13;5011601;28;20068;-76
2022/08/15 05:03:17;;;;;;;5.68;2.95;;;;;;;22.25;55.44;100078.28;5019896;28;20029;-76
2022/08/15 05:05:48;;;;;;;;;;;;;;;22.08;55.52;100088.94;5018463;28;20573;-76
2022/08/15 05:08:15;;;;;;;9.15;2.95;;;;;;;22.20;55.18;100083.50;5029751;28;19920;-76
2022/08/15 05:10:51;;;;;;;6.15;2.08;;;;;;;22.16;55.51;100084.00;5028572;28;20032;-77
2022/08/15 05:13:19;;;;;;;2.58;2.20;;;;;;;22.17;55.42;100076.88;5033588;28;20056;-75
2022/08/15 05:15:47;;;;;;;7.20;1.92;;;;;;;22.15;55.34;100084.22;5034458;28;20764;-77
2022/08/15 05:18:12;;;;;;;4.65;2.47;;;;;;;22.15;55.82;100084.22;5018118;28;20041;-77
2022/08/15 05:20:41;;;;;;;7.20;2.28;;;;;;;22.18;55.51;100083.75;5032024;28;20033;-76
2022/08/15 05:23:10;;;;;;;4.45;2.10;;;;;;;22.16;55.36;100085.84;5018394;28;20029;-78
2022/08/15 05:25:49;;;;;;;6.78;2.00;;;;;;;22.29;55.53;100082.81;5030352;28;20090;-79
2022/08/15 05:28:16;;;;;;;4.80;1.95;;;;;;;22.29;55.40;100090.75;5030004;28;20155;-77
2022/08/15 05:30:42;;;;;;;8.13;2.45;;;;;;;22.38;55.40;100088.44;5020717;28;20036;-76
2022/08/15 05:33:11;;;;;;;3.22;2.20;;;;;;;22.28;55.96;100101.53;5021462;28;20381;-75
2022/08/15 05:35:41;;;;;;;6.78;2.15;;;;;;;22.21;55.88;100099.09;5018416;28;20413;-77
2022/08/15 05:38:17;;;;;;;6.72;2.40;;;;;;;22.37;55.94;100113.25;5029105;28;20086;-75
2022/08/15 05:41:01;;;;;;;4.45;2.10;;;;;;;22.32;55.79;100107.91;5014959;28;20481;-75
2022/08/15 05:43:49;;;;;;;3.50;1.88;;;;;;;22.28;56.03;100112.09;5018077;28;20099;-76
2022/08/15 05:46:31;;;;;;;4.60;2.17;;;;;;;22.38;56.01;100109.56;5011886;28;20029;-75
2022/08/15 05:49:13;;;;;;;4.75;2.00;;;;;;;22.37;56.31;100115.09;5032918;28;20041;-76
2022/08/15 05:51:47;;;;;;;4.85;2.00;;;;;;;22.34;56.50;100111.91;5028252;28;20039;-76
2022/08/15 05:54:52;;;;;;;8.30;2.38;;;;;;;22.27;56.99;100108.69;5019851;28;20048;-76
2022/08/15 05:57:26;;;;;;;3.97;2.28;;;;;;;22.33;56.41;100110.31;5000148;28;20061;-77
2022/08/15 05:59:54;;;;;;;5.47;2.38;;;;;;;;;;5042805;28;20463;-76
2022/08/15 06:02:29;;;;;;;7.15;2.33;;;;;;;22.33;56.90;100118.22;5048963;28;20037;-77
2022/08/15 06:04:58;;;;;;;8.40;2.20;;;;;;;22.29;57.05;100125.06;5013799;28;20028;-75
2022/08/15 06:07:24;;;;;;;6.00;2.03;;;;;;;22.27;57.47;100123.72;5029288;28;20462;-76
2022/08/15 06:10:04;;;;;;;2.70;2.00;;;;;;;22.29;57.48;100116.34;5046146;28;20029;-76
2022/08/15 06:12:56;;;;;;;6.20;2.40;;;;;;;22.45;57.06;100122.56;5048070;28;20024;-76
2022/08/15 06:15:46;;;;;;;7.13;1.95;;;;;;;22.48;57.11;100119.44;5033187;28;20053;-77
2022/08/15 06:18:17;;;;;;;4.78;2.30;;;;;;;22.52;57.05;100118.66;5022109;28;20079;-78
2022/08/15 06:20:56;;;;;;;8.02;2.10;;;;;;;22.54;57.21;100123.69;5029636;28;20060;-76
2022/08/15 06:24:07;;;;;;;4.72;2.42;;;;;;;22.58;57.34;100127.41;5040872;28;20468;-77
2022/08/15 06:27:18;;;;;;;12.65;2.33;;;;;;;22.67;57.52;100133.03;5030041;28;20029;-76
2022/08/15 06:30:06;;;;;;;5.68;2.30;;;;;;;22.78;57.22;100126.00;5026013;28;20136;-75
2022/08/15 06:32:41;;;;;;;4.80;2.42;;;;;;;22.84;57.10;100124.97;5027484;28;20033;-76
2022/08/15 06:35:21;;;;;;;6.68;2.22;;;;;;;22.80;57.58;100129.19;5027218;28;20029;-76
2022/08/15 06:37:47;;;;;;;10.70;2.00;;;;;;;22.87;56.76;100127.91;5043825;28;20095;-76
2022/08/15 06:40:33;;;;;;;5.88;2.20;;;;;;;22.90;57.36;100122.09;5024103;28;20124;-76
2022/08/15 06:42:59;;;;;;;7.97;2.63;;;;;;;22.84;57.64;100122.34;5009737;28;20037;-76
2022/08/15 06:45:48;;;;;;;20.60;8.85;;;;;;;22.85;57.67;100121.28;5032154;28;20524;-76
2022/08/15 06:48:19;;;;;;;8.60;3.70;;;;;;;22.84;58.35;100123.13;5013546;28;20478;-75
2022/08/15 06:50:49;;;;;;;9.73;3.60;;;;;;;22.75;58.64;100129.94;5013063;28;20080;-75
2022/08/15 06:53:31;;;;;;;7.53;2.70;;;;;;;22.70;58.91;100130.69;5033235;28;20024;-74
2022/08/15 06:56:04;;;;;;;5.82;2.50;;;;;;;22.86;58.24;100128.97;5026184;28;20036;-76
2022/08/15 06:58:39;;;;;;;10.40;2.80;;;;;;;22.83;58.48;100126.84;5025720;28;20424;-75
2022/08/15 07:01:17;;;;;;;8.32;2.67;;;;;;;22.76;58.53;100125.47;5042365;28;20658;-75
2022/08/15 07:04:15;;;;;;;6.55;2.30;;;;;;;22.73;59.05;100137.31;5041866;28;20028;-76
2022/08/15 07:06:58;;;;;;;5.40;2.72;;;;;;;22.81;58.70;100130.75;5019386;28;20037;-76
2022/08/15 07:09:40;;;;;;;11.23;2.53;;;;;;;22.76;58.48;100126.25;5045117;28;20063;-78
2022/08/15 07:12:25;;;;;;;4.80;2.40;;;;;;;22.69;58.85;100138.88;5045202;28;20404;-75
2022/08/15 07:15:17;;;;;;;15.10;2.90;;;;;;;22.76;58.53;100130.75;5025442;28;20394;-74
2022/08/15 07:18:00;;;;;;;10.02;3.55;;;;;;;22.67;59.33;100147.03;5026334;28;20025;-77
2022/08/15 07:20:30;;;;;;;10.40;2.55;;;;;;;22.73;59.01;100148.69;5021500;28;20295;-77
2022/08/15 07:22:56;;;;;;;7.13;2.47;;;;;;;22.68;59.39;100143.38;5026427;28;20037;-76
2022/08/15 07:25:29;;;;;;;4.95;2.33;;;;;;;22.63;59.89;100147.81;5026239;28;20039;-76
2022/08/15 07:28:04;;;;;;;6.55;2.60;;;;;;;22.68;59.72;100140.72;5003003;28;20624;-80
2022/08/15 07:31:00;;;;;;;8.60;3.10;;;;;;;22.67;60.36;100143.63;5044204;28;20033;-76
2022/08/15 07:33:37;;;;;;;5.25;2.58;;;;;;;22.67;59.96;100149.69;5023597;28;20032;-75
2022/08/15 07:36:13;;;;;;;8.60;3.20;;;;;;;22.64;60.30;100144.94;5024492;28;20135;-76
2022/08/15 07:38:39;;;;;;;8.35;3.67;;;;;;;22.64;60.47;100144.09;5021931;28;20029;-75
2022/08/15 07:41:15;;;;;;;10.95;3.22;;;;;;;22.72;60.47;100144.44;5012546;28;20370;-76
2022/08/15 07:43:42;;;;;;;4.70;2.50;;;;;;;22.74;60.31;100144.22;5019824;28;20025;-77
2022/08/15 07:46:39;;;;;;;8.68;2.80;;;;;;;22.73;60.58;100143.41;5027024;28;20032;-75
2022/08/15 07:49:20;;;;;;;7.78;2.90;;;;;;;22.82;60.35;100142.94;5006087;28;20383;-75
2022/08/15 07:52:02;;;;;;;7.40;2.60;;;;;;;22.76;60.43;100146.59;5037422;28;20040;-75
2022/08/15 07:54:43;;;;;;;5.63;2.88;;;;;;;22.76;60.91;100150.03;5036469;28;20147;-76
2022/08/15 07:57:21;;;;;;;10.32;2.80;;;;;;;22.83;60.77;100149.81;5011402;28;20028;-76
2022/08/15 08:00:04;;;;;;;7.28;2.78;;;;;;;22.81;61.23;100162.47;5027491;28;20045;-74
2022/08/15 08:02:50;;;;;;;5.60;2.40;;;;;;;22.91;60.87;100159.94;5028783;28;20040;-76
2022/08/15 08:05:16;;;;;;;7.65;2.40;;;;;;;22.94;61.15;100162.03;5040601;28;20168;-77
2022/08/15 08:07:46;;;;;;;8.90;2.70;;;;;;;22.96;61.58;100167.09;5024187;28;20028;-77
2022/08/15 08:10:39;;;;;;;5.03;2.30;;;;;;;23.01;60.87;100160.00;5005991;28;20086;-75
2022/08/15 08:13:40;;;;;;;7.20;2.80;;;;;;;23.12;61.02;100155.59;5040490;28;20147;-75
2022/08/15 08:16:30;;;;;;;7.38;3.00;;;;;;;23.18;61.34;100153.78;5006825;28;20475;-75
2022/08/15 08:19:20;;;;;;;8.40;2.53;;;;;;;23.28;60.77;100161.75;5027597;28;20087;-76
2022/08/15 08:22:18;;;;;;;8.95;2.97;;;;;;;23.32;60.69;100158.38;5023646;28;20033;-75
2022/08/15 08:25:00;;;;;;;6.70;2.95;;;;;;;23.42;60.31;100154.97;5021214;28;20397;-75
2022/08/15 08:27:33;;;;;;;10.57;3.28;;;;;;;23.56;60.39;100157.94;5039329;28;20033;-75
2022/08/15 08:30:06;;;;;;;5.95;2.95;;;;;;;23.58;60.73;100150.53;5043446;28;20170;-75
2022/08/15 08:32:50;;;;;;;6.95;2.63;;;;;;;23.67;60.73;100159.59;5025232;28;20032;-75
2022/08/15 08:35:35;;;;;;;8.82;3.10;;;;;;;23.68;60.74;100152.47;5022873;28;22096;-76
2022/08/15 08:38:20;;;;;;;8.80;3.80;;;;;;;23.77;60.58;100160.69;5023050;28;20692;-75
2022/08/15 08:44:28;;;;;;;5.50;2.78;;;;;;;23.50;61.08;100172.22;5021863;28;20060;-76
2022/08/15 08:47:31;;;;;;;8.82;3.05;;;;;;;23.60;60.66;100174.09;5024287;28;20042;-76
2022/08/15 08:50:15;;;;;;;7.15;3.13;;;;;;;23.59;61.07;100175.97;5041551;28;20041;-76
2022/08/15 08:52:47;;;;;;;7.93;3.10;;;;;;;23.76;60.70;100173.13;5038257;28;20502;-75
2022/08/15 08:55:26;;;;;;;9.07;3.40;;;;;;;23.73;61.36;100181.56;5041847;28;20036;-75
2022/08/15 08:58:06;;;;;;;10.95;3.45;;;;;;;23.69;61.14;100183.16;5026669;28;20163;-75
2022/08/15 09:00:41;;;;;;;5.25;3.00;;;;;;;23.75;60.52;100174.16;5023147;28;20056;-75
2022/08/15 09:03:17;;;;;;;9.02;3.25;;;;;;;23.60;61.41;100182.03;5029283;28;20041;-76
2022/08/15 09:05:51;;;;;;;10.32;2.70;;;;;;;23.60;61.80;100182.84;5026394;28;20040;-76
2022/08/15 09:08:24;;;;;;;7.38;2.95;;;;;;;23.48;62.44;100182.25;5046069;28;20037;-76
2022/08/15 09:10:54;;;;;;;8.40;3.00;;;;;;;23.47;62.14;100192.03;5020025;28;20387;-76
2022/08/15 09:13:34;;;;;;;11.32;3.40;;;;;;;23.49;62.39;100184.66;5038934;28;20040;-75
2022/08/15 09:16:35;;;;;;;10.27;4.15;;;;;;;23.39;62.54;100191.72;5008792;28;20167;-77
2022/08/15 09:19:45;;;;;;;6.35;3.38;;;;;;;23.45;62.40;100191.50;5003603;28;20875;-76
2022/08/15 09:22:10;;;;;;;8.70;3.10;;;;;;;23.41;63.40;100197.56;4923094;29;20557;-76
2022/08/15 09:24:36;;;;;;;5.22;3.55;;;;;;;23.34;62.88;100205.72;5009923;28;20037;-76
2022/08/15 09:27:26;;;;;;;9.63;3.35;;;;;;;23.25;63.04;100215.19;5020831;28;20217;-76
2022/08/15 09:30:02;;;;;;;17.40;4.53;;;;;;;23.31;63.21;100208.88;5020578;28;20041;-76
2022/08/15 09:32:28;;;;;;;11.27;3.95;;;;;;;23.30;63.08;100209.91;5010902;28;20037;-77
2022/08/15 09:35:22;;;;;;;10.50;3.45;;;;;;;23.20;63.56;100205.34;5022934;28;20079;-76
2022/08/15 09:38:06;;;;;;;10.30;4.03;;;;;;;23.30;63.33;100205.44;5040610;28;20036;-74
2022/08/15 09:40:50;;;;;;;8.63;3.75;;;;;;;23.38;63.35;100201.50;5038595;28;20037;-76
2022/08/15 09:43:55;;;;;;;11.38;3.30;;;;;;;23.35;64.28;100204.66;5026216;28;20039;-76
2022/08/15 09:46:25;;;;;;;10.60;3.55;;;;;;;23.44;63.60;100200.47;5044081;28;20029;-77
2022/08/15 09:49:09;;;;;;;10.23;3.83;;;;;;;23.40;63.77;100206.56;5044990;28;20111;-76
2022/08/15 09:52:19;;;;;;;10.73;4.10;;;;;;;23.52;63.42;100202.63;5046494;28;20028;-74
2022/08/15 09:54:54;;;;;;;8.40;3.13;;;;;;;23.55;63.41;100196.06;5043177;28;20091;-75
2022/08/15 09:57:34;;;;;;;11.80;4.03;;;;;;;23.42;63.70;100197.31;5014000;28;20096;-77
2022/08/15 10:00:16;;;;;;;11.85;3.60;;;;;;;23.33;64.10;100198.84;5020332;28;20037;-75
2022/08/15 10:02:45;;;;;;;7.50;3.78;;;;;;;23.36;63.96;100194.88;5009563;28;20515;-80
2022/08/15 10:05:25;;;;;;;6.97;3.90;;;;;;;23.28;64.32;100201.44;5005778;28;20045;-75
2022/08/15 10:07:55;;;;;;;8.55;4.10;;;;;;;23.30;64.67;100197.50;5023920;28;20477;-77
2022/08/15 10:10:34;;;;;;;13.20;4.32;;;;;;;23.37;64.58;100193.81;5021413;28;20090;-76
2022/08/15 10:13:34;;;;;;;7.65;4.05;;;;;;;23.36;66.15;100206.25;5009997;28;20045;-75
2022/08/15 10:15:59;;;;;;;11.52;4.45;;;;;;;23.29;68.40;100211.75;5010921;28;20049;-76
2022/08/15 10:18:26;;;;;;;7.13;4.10;;;;;;;23.25;68.93;100210.69;5035189;28;20485;-76
2022/08/15 10:21:00;;;;;;;9.18;3.80;;;;;;;23.21;69.59;100211.47;5039643;28;20036;-76
2022/08/15 10:23:40;;;;;;;9.93;4.05;;;;;;;23.22;69.54;100205.09;5039831;28;20513;-75
2022/08/15 10:26:20;;;;;;;8.55;4.47;;;;;;;23.07;68.67;100213.72;5011188;28;20056;-75
2022/08/15 10:29:08;;;;;;;9.82;4.60;;;;;;;23.09;70.31;100215.09;5037866;28;20029;-75
2022/08/15 10:31:56;;;;;;;9.30;4.28;;;;;;;23.15;69.34;100209.81;5006854;28;20037;-76
2022/08/15 10:34:37;;;;;;;13.13;5.65;;;;;;;23.03;69.99;100209.97;5023753;28;20509;-77
2022/08/15 10:37:15;;;;;;;7.88;4.70;;;;;;;23.04;71.40;100204.47;5027824;28;20681;-78
2022/08/15 10:40:06;;;;;;;7.88;4.55;;;;;;;23.06;72.22;100214.78;5020430;28;20397;-76
2022/08/15 10:42:45;;;;;;;7.00;3.90;;;;;;;23.08;73.31;100215.31;5039904;28;20029;-78
2022/08/15 10:45:22;;;;;;;16.38;5.45;;;;;;;23.08;73.81;100210.03;5010772;28;20032;-78
2022/08/15 10:48:01;;;;;;;7.70;4.97;;;;;;;23.06;73.12;100217.44;5022175;28;20033;-80
2022/08/15 10:51:01;;;;;;;6.30;4.15;;;;;;;22.96;72.10;100210.16;5005963;28;20025;-77
2022/08/15 10:53:50;;;;;;;9.70;4.28;;;;;;;22.92;73.41;100211.72;5045752;28;20544;-77
2022/08/15 10:56:25;;;;;;;6.47;3.63;;;;;;;22.93;74.00;100211.47;5027787;28;20045;-77
2022/08/15 10:58:59;;;;;;;7.82;4.50;;;;;;;22.98;73.53;100216.03;5025861;28;20122;-77
2022/08/15 11:01:31;;;;;;;8.95;4.60;;;;;;;23.01;73.32;100220.78;5043041;28;20036;-77
2022/08/15 11:04:07;;;;;;;9.20;4.80;;;;;;;23.06;74.52;100225.38;5025514;28;20602;-77
2022/08/15 11:06:40;;;;;;;11.73;4.60;;;;;;;23.05;74.02;100221.09;5009988;28;20555;-77
2022/08/15 11:09:08;;;;;;;7.47;4.03;;;;;;;23.05;73.57;100226.41;5025550;28;20671;-77
2022/08/15 11:11:42;;;;;;;10.02;4.97;;;;;;;23.07;73.81;100233.00;5010229;28;20029;-77
2022/08/15 11:14:17;;;;;;;7.90;4.25;;;;;;;23.03;72.95;100231.94;5020443;28;20530;-77
2022/08/15 11:16:51;;;;;;;7.00;3.95;;;;;;;23.06;73.30;100231.44;5032604;28;20033;-77
2022/08/15 11:19:32;;;;;;;9.82;5.05;;;;;;;23.06;73.49;100235.94;5010019;28;20156;-76
2022/08/15 11:22:01;;;;;;;9.82;4.20;;;;;;;23.04;72.67;100243.31;5023003;28;20095;-80
2022/08/15 11:24:33;;;;;;;8.77;4.40;;;;;;;23.04;73.01;100240.69;5030270;28;20444;-77
2022/08/15 11:27:23;;;;;;;9.45;4.40;;;;;;;23.08;73.48;100239.91;5036324;28;20397;-78
2022/08/15 11:29:51;;;;;;;9.70;4.40;;;;;;;23.19;71.90;100242.63;5022335;28;20029;-78
2022/08/15 11:32:43;;;;;;;8.85;4.82;;;;;;;23.25;71.23;100246.91;5024511;28;20040;-77
2022/08/15 11:35:27;;;;;;;11.75;4.53;;;;;;;23.15;71.09;100246.81;5020333;28;20505;-78
2022/08/15 11:37:58;;;;;;;7.97;4.68;;;;;;;23.16;71.53;100237.84;5021297;28;20042;-76
2022/08/15 11:40:28;;;;;;;11.10;4.45;;;;;;;23.09;72.06;100248.63;5006400;28;20125;-77
2022/08/15 11:42:55;;;;;;;8.65;3.42;;;;;;;23.09;73.11;100246.81;5019876;28;20029;-78
2022/08/15 11:45:26;;;;;;;6.20;3.60;;;;;;;23.08;73.38;100244.41;5006968;28;20060;-76
2022/08/15 11:47:55;;;;;;;10.65;4.07;;;;;;;23.08;72.41;100249.69;5034204;28;20033;-77
2022/08/15 11:50:32;;;;;;;7.40;3.85;;;;;;;22.98;73.85;100244.28;5022137;28;20730;-76
2022/08/15 11:53:01;;;;;;;7.07;3.50;;;;;;;22.97;73.88;100248.78;5004360;28;20056;-77
2022/08/15 11:55:41;;;;;;;11.27;4.40;;;;;;;22.97;73.79;100251.41;5041638;28;20129;-79
2022/08/15 11:58:12;;;;;;;8.50;3.88;;;;;;;22.94;73.16;100243.97;5022807;28;20071;-77
2022/08/15 12:00:40;;;;;;;11.63;7.95;;;;;;;22.97;73.15;100248.78;5019081;28;20041;-75
2022/08/15 12:03:56;;;;;;;19.63;7.60;;;;;;;23.00;73.65;100248.28;5020463;28;20159;-77